Zhongchuan Airport
ZLLL : now visible

Airfield :











YOU CAN JOIN US ON...

 
LOGIN :

Register | Disclaimer

   EN    FR    IT 

 









Legend :    VFR   Marginal VFR   IFR   Intensive IFR   Very Intensive IFR
Visi :
Ceiling :
>= 8 km
>= 3000ft
5 to 8 km
1000 to 3000 ft
1500m to 5 km
500 to 1000 ft
800 to 1500m
200 to 500 ft
< 800m
< 200 ft
Symbols :   Thunderstorms  Fog  Heavy snow  Heavy precipitations  Wind > 20 kt






- Airport Elevation : 6388 ft
- IATA code : ZGC


ZLLL - Zhongchuan

CURRENT METAR :
  • 190400Z VRB02MPS CAVOK 27/09 Q1012 NOSIG

EXPIRED METARs :
  • 190300Z 13002MPS 080V180 CAVOK 25/10 Q1012 NOSIG
  • 190200Z VRB01MPS CAVOK 24/10 Q1012 NOSIG
  • 190100Z VRB01MPS CAVOK 23/11 Q1013 NOSIG
  • 190000Z 33002MPS CAVOK 19/10 Q1013 NOSIG
  • 182300Z 32002MPS CAVOK 17/09 Q1012 NOSIG

TAF TAF ZLLL
Valid from the 19 at 00:00 until the 20 at 00:00 UTC


182114Z 1900/1924 15003MPS 6000 NSC TX29/1908Z TN18/1922Z
TEMPO 1907/1911 34008MPS -SHRA SCT023 FEW033CB
ZLHW FIR / Asia



MET'MAP, your aeronautical weather chart ! - Copyright ORBIFLY December 2007 - Disclaimer

ORBIFLY MET'MAP TEAM :

Programming & Development : Alexandra Zaïnal
Original concept : Baudouin d'Aumeries
Technical & hardware support : Manuel Goepfert
Assistance : Marc-Olivier Méhu




SOURCES & CREDITS :

   NOAA       Earth
Advisory